Time;durP1;ratioP1;P1;durP2;ratioP2;P2;SDS_P1;SDS_P2;PMS_P1;PMS_P2;Temp;Humidity;BMP_temperature;BMP_pressure;BME280_temperature;BME280_humidity;BME280_pressure;Samples;Min_cycle;Max_cycle;Signal;HPM_P1;HPM_P2
2021/01/18 00:01:22;;;;;;;121.30;36.73;;;;;;;-14.60;79.60;101671.59;1674479;84;21178;-81
2021/01/18 00:03:49;;;;;;;113.23;33.73;;;;;;;-14.61;79.57;101673.92;1668626;84;21184;-80
2021/01/18 00:06:17;;;;;;;123.63;38.80;;;;;;;-14.63;79.58;101670.05;1669707;84;21206;-80
2021/01/18 00:08:45;;;;;;;127.83;39.30;;;;;;;-14.62;79.66;101675.89;1675573;84;21803;-81
2021/01/18 00:11:12;;;;;;;132.20;41.17;;;;;;;-14.60;79.65;101667.87;1665382;84;21196;-80
2021/01/18 00:13:39;;;;;;;124.50;42.03;;;;;;;-14.59;79.58;101666.27;1656554;84;21215;-81
2021/01/18 00:16:06;;;;;;;125.00;38.07;;;;;;;-14.64;79.51;101665.81;1669365;84;21179;-80
2021/01/18 00:18:33;;;;;;;125.70;42.57;;;;;;;-14.64;79.52;101659.61;1679603;84;21497;-80
2021/01/18 00:21:00;;;;;;;124.00;41.33;;;;;;;-14.65;79.46;101656.97;1668339;83;21225;-81
2021/01/18 00:23:26;;;;;;;136.27;40.63;;;;;;;-14.69;79.44;101652.42;1677078;84;21121;-80
2021/01/18 00:25:52;;;;;;;127.13;40.83;;;;;;;-14.68;79.51;101647.97;1665540;84;21156;-81
2021/01/18 00:28:18;;;;;;;127.57;42.63;;;;;;;-14.70;79.49;101646.58;1683415;83;21117;-81
2021/01/18 00:30:45;;;;;;;122.80;40.53;;;;;;;-14.72;79.41;101649.27;1667773;84;21148;-81
2021/01/18 00:33:11;;;;;;;129.27;39.90;;;;;;;-14.75;79.43;101646.48;1670618;84;21166;-80
2021/01/18 00:35:37;;;;;;;124.10;38.47;;;;;;;-14.80;79.41;101637.34;1669551;84;21408;-81
2021/01/18 00:38:04;;;;;;;120.47;38.37;;;;;;;-14.79;79.52;101637.85;1673900;84;21498;-81
2021/01/18 00:40:30;;;;;;;120.13;35.07;;;;;;;-14.80;79.62;101629.89;1672796;84;21105;-81
2021/01/18 00:42:56;;;;;;;122.93;40.40;;;;;;;-14.78;79.70;101632.16;1668506;83;21120;-81
2021/01/18 00:45:24;;;;;;;106.17;33.13;;;;;;;-14.78;79.56;101639.61;1664079;84;21884;-81
2021/01/18 00:47:55;;;;;;;129.43;38.80;;;;;;;-14.78;79.49;101638.73;1667045;84;21141;-81
2021/01/18 00:50:27;;;;;;;122.07;39.57;;;;;;;-14.82;79.49;101636.30;1682491;83;21242;-80
2021/01/18 00:52:55;;;;;;;113.73;36.13;;;;;;;-14.83;79.50;101636.15;1646993;85;21719;-81
2021/01/18 00:55:23;;;;;;;116.40;35.70;;;;;;;-14.85;79.52;101633.87;1674069;84;21168;-81
2021/01/18 00:57:50;;;;;;;118.60;36.77;;;;;;;-14.87;79.44;101627.52;1680863;84;21146;-81
2021/01/18 01:00:26;;;;;;;118.40;38.80;;;;;;;-14.85;79.57;101634.75;1666055;84;21176;-81
2021/01/18 01:02:53;;;;;;;114.83;36.10;;;;;;;-14.82;79.57;101631.34;1657884;85;21255;-81
2021/01/18 01:05:26;;;;;;;109.33;34.47;;;;;;;-14.81;79.56;101633.09;1667115;84;21204;-81
2021/01/18 01:07:56;;;;;;;122.50;37.13;;;;;;;-14.81;79.56;101636.82;1668360;84;21707;-81
2021/01/18 01:10:32;;;;;;;116.50;36.57;;;;;;;-14.80;79.56;101636.45;1683020;83;21236;-81
2021/01/18 01:13:02;;;;;;;107.53;35.43;;;;;;;-14.81;79.45;101635.94;1686758;84;21183;-81
2021/01/18 01:15:29;;;;;;;122.17;37.53;;;;;;;-14.84;79.45;101630.31;1686715;83;21215;-81
2021/01/18 01:17:56;;;;;;;137.67;37.17;;;;;;;-14.86;79.40;101630.52;1692376;83;21193;-81
2021/01/18 01:20:24;;;;;;;126.10;39.60;;;;;;;-14.88;79.38;101625.77;1698167;83;21239;-81
2021/01/18 01:22:51;;;;;;;125.80;40.97;;;;;;;-14.92;79.33;101616.25;1694031;83;21228;-81
2021/01/18 01:25:20;;;;;;;122.07;38.10;;;;;;;-14.95;79.25;101620.03;1695151;83;21183;-81
2021/01/18 01:27:47;;;;;;;120.60;37.83;;;;;;;-14.98;79.34;101620.96;1693990;83;21191;-81
2021/01/18 01:30:17;;;;;;;134.77;38.27;;;;;;;-14.98;79.37;101618.12;1688755;83;21215;-81
2021/01/18 01:32:50;;;;;;;119.17;39.67;;;;;;;-14.95;79.46;101621.27;1562410;86;21255;-81
2021/01/18 01:35:22;;;;;;;122.30;38.50;;;;;;;-14.94;79.45;101629.23;1560083;90;22306;-81
2021/01/18 01:37:48;;;;;;;130.37;38.07;;;;;;;-14.95;79.34;101622.51;1580084;90;21704;-80
2021/01/18 01:40:16;;;;;;;117.33;36.73;;;;;;;-15.03;79.33;101613.42;1569273;90;21259;-81
2021/01/18 01:42:43;;;;;;;116.93;36.83;;;;;;;-14.98;79.39;101619.72;1565206;90;21264;-81
2021/01/18 01:45:13;;;;;;;122.33;36.47;;;;;;;-14.98;79.42;101623.08;1567324;89;21209;-81
2021/01/18 01:47:49;;;;;;;128.77;38.30;;;;;;;-14.99;79.26;101619.20;1574203;89;21373;-81
2021/01/18 01:50:30;;;;;;;120.47;37.90;;;;;;;-15.06;79.17;101615.23;1571817;90;21288;-81
2021/01/18 01:53:09;;;;;;;115.20;36.47;;;;;;;-15.07;79.25;101618.42;1568346;89;21235;-80
2021/01/18 01:55:36;;;;;;;118.57;37.43;;;;;;;-15.07;79.41;101614.34;1567428;90;21247;-80
2021/01/18 01:58:05;;;;;;;127.03;37.17;;;;;;;-15.02;79.48;101608.97;1567107;89;21239;-80
2021/01/18 02:00:39;;;;;;;122.97;34.77;;;;;;;-15.00;79.49;101608.77;1566001;90;21256;-80
2021/01/18 02:03:11;;;;;;;106.17;32.33;;;;;;;-15.00;79.38;101608.77;1575059;89;21805;-80
2021/01/18 02:05:39;;;;;;;107.93;36.07;;;;;;;-15.02;79.34;101608.61;1569960;90;21216;-80
2021/01/18 02:08:09;;;;;;;119.00;35.00;;;;;;;-15.04;79.35;101615.02;1568181;90;21167;-80
2021/01/18 02:10:38;;;;;;;116.87;34.87;;;;;;;-15.08;79.25;101614.23;1557722;90;21263;-80
2021/01/18 02:13:40;;;;;;;117.60;36.23;;;;;;;-15.12;79.26;101614.64;1548420;90;21253;-80
2021/01/18 02:16:33;;;;;;;123.47;36.07;;;;;;;-15.12;79.33;101613.40;1569307;89;21239;-80
2021/01/18 02:19:46;;;;;;;112.27;35.07;;;;;;;-15.11;79.38;101615.16;1591751;89;21226;-80
2021/01/18 02:22:29;;;;;;;114.70;34.93;;;;;;;-15.12;79.28;101620.48;1555398;91;21271;-80
2021/01/18 02:25:37;;;;;;;121.50;35.63;;;;;;;-15.11;79.33;101620.12;1576801;89;21695;-80
2021/01/18 02:28:33;;;;;;;111.33;33.23;;;;;;;-15.10;79.32;101612.83;1569243;89;21572;-80
2021/01/18 02:31:22;;;;;;;113.47;37.53;;;;;;;-15.10;79.28;101615.31;1572212;90;21251;-80
2021/01/18 02:34:09;;;;;;;125.13;37.17;;;;;;;-15.13;79.24;101612.88;1578298;89;21229;-80
2021/01/18 02:36:53;;;;;;;133.20;36.57;;;;;;;-15.15;79.29;101606.89;1592764;88;21248;-80
2021/01/18 02:39:50;;;;;;;128.83;39.40;;;;;;;-15.23;79.10;101602.75;1577578;89;21200;-80
2021/01/18 02:42:34;;;;;;;130.40;36.93;;;;;;;-15.23;79.32;101594.95;1579466;89;21248;-80
2021/01/18 02:45:00;;;;;;;132.13;37.93;;;;;;;-15.18;79.37;101594.18;1578088;89;21609;-80
2021/01/18 02:47:32;;;;;;;124.57;36.73;;;;;;;-15.19;79.36;101589.58;1575308;89;21217;-80
2021/01/18 02:50:00;;;;;;;119.07;37.33;;;;;;;-15.15;79.44;101588.29;1581611;89;21252;-80
2021/01/18 02:52:27;;;;;;;116.27;37.10;;;;;;;-15.15;79.35;101593.25;1561754;90;21254;-80
2021/01/18 02:54:53;;;;;;;129.13;38.53;;;;;;;-15.16;79.32;101585.30;1575981;89;21253;-80
2021/01/18 02:57:21;;;;;;;111.40;35.37;;;;;;;-15.15;79.40;101591.64;1579775;89;21889;-80
2021/01/18 02:59:48;;;;;;;118.73;36.63;;;;;;;-15.15;79.29;101586.69;1581259;89;21145;-80
2021/01/18 03:02:48;;;;;;;123.80;35.33;;;;;;;-15.14;79.36;101583.84;1581168;89;21177;-80
2021/01/18 03:05:22;;;;;;;120.40;35.90;;;;;;;-15.13;79.37;101583.13;1582345;89;21164;-81
2021/01/18 03:08:16;;;;;;;120.80;36.20;;;;;;;-15.11;79.38;101582.91;1573350;89;22227;-80
2021/01/18 03:11:18;;;;;;;132.47;38.00;;;;;;;-15.11;79.33;101584.16;1581365;89;21161;-80
2021/01/18 03:14:06;;;;;;;127.53;38.73;;;;;;;-15.11;79.36;101582.91;1572630;90;21144;-80
2021/01/18 03:16:44;;;;;;;134.83;38.80;;;;;;;-15.09;79.36;101581.46;1579821;89;21144;-81
2021/01/18 03:19:13;;;;;;;126.13;35.80;;;;;;;-15.07;79.40;101572.18;1570903;89;21128;-81
2021/01/18 03:21:46;;;;;;;130.10;37.83;;;;;;;-15.05;79.40;101574.81;1580001;89;21958;-81
2021/01/18 03:24:12;;;;;;;127.97;36.37;;;;;;;-15.09;79.20;101576.50;1580607;89;21574;-80
2021/01/18 03:26:38;;;;;;;128.53;39.00;;;;;;;-15.12;79.24;101581.16;1581315;89;21200;-80
2021/01/18 03:29:05;;;;;;;119.70;35.70;;;;;;;-15.15;79.20;101581.73;1578404;89;21217;-80
2021/01/18 03:31:31;;;;;;;119.87;35.43;;;;;;;-15.17;79.23;101578.22;1580517;89;21238;-81
2021/01/18 03:33:57;;;;;;;116.87;32.97;;;;;;;-15.18;79.19;101576.45;1578818;89;21821;-80
2021/01/18 03:36:23;;;;;;;123.80;36.17;;;;;;;-15.18;79.19;101579.30;1579658;89;21243;-80
2021/01/18 03:38:50;;;;;;;128.13;35.73;;;;;;;-15.19;79.22;101581.27;1577589;90;21209;-81
2021/01/18 03:41:19;;;;;;;136.50;38.23;;;;;;;-15.20;79.23;101583.22;1578787;89;21250;-80
2021/01/18 03:43:45;;;;;;;100.87;29.83;;;;;;;-15.18;79.29;101584.26;1577916;89;21212;-80
2021/01/18 03:46:11;;;;;;;118.17;36.30;;;;;;;-15.17;79.24;101576.09;1580106;89;21811;-81
2021/01/18 03:48:38;;;;;;;126.37;35.93;;;;;;;-15.23;79.09;101582.91;1579754;89;21184;-80
2021/01/18 03:51:04;;;;;;;119.03;36.17;;;;;;;-15.26;79.11;101582.61;1577793;90;21205;-80
2021/01/18 03:53:30;;;;;;;125.93;40.50;;;;;;;-15.27;79.13;101579.61;1580101;89;21221;-80
2021/01/18 03:55:57;;;;;;;129.10;38.17;;;;;;;-15.27;79.16;101585.81;1578018;89;21507;-80
2021/01/18 03:58:23;;;;;;;123.53;36.83;;;;;;;-15.25;79.24;101583.13;1580532;90;21855;-80
2021/01/18 04:00:50;;;;;;;143.67;41.37;;;;;;;-15.23;79.27;101580.44;1578183;89;21230;-80
2021/01/18 04:03:19;;;;;;;136.20;37.27;;;;;;;-15.22;79.23;101579.72;1578628;89;21822;-80
2021/01/18 04:05:44;;;;;;;132.17;42.33;;;;;;;-15.23;79.20;101579.20;1578222;89;21215;-79
2021/01/18 04:08:10;;;;;;;135.53;39.07;;;;;;;-15.24;79.13;101573.72;1584951;89;21214;-80
2021/01/18 04:10:37;;;;;;;115.77;40.03;;;;;;;-15.30;79.08;101577.70;1579857;89;21627;-80
2021/01/18 04:13:03;;;;;;;134.87;39.03;;;;;;;-15.32;79.08;101563.39;1565627;90;21668;-80
2021/01/18 04:15:29;;;;;;;138.83;41.17;;;;;;;-15.32;79.14;101564.63;1579526;89;21246;-80
2021/01/18 04:17:57;;;;;;;117.43;37.73;;;;;;;-15.32;79.13;101563.39;1575303;89;21229;-80
2021/01/18 04:20:25;;;;;;;137.37;40.07;;;;;;;-15.34;79.13;101563.59;1598798;87;21229;-80
2021/01/18 04:22:57;;;;;;;118.30;37.00;;;;;;;-15.33;79.18;101569.07;1580894;89;21250;-80
2021/01/18 04:25:27;;;;;;;123.77;36.43;;;;;;;-15.31;79.19;101567.62;1580931;89;21613;-80
2021/01/18 04:28:00;;;;;;;123.53;37.17;;;;;;;-15.35;79.12;101560.23;1575481;89;21671;-81
2021/01/18 04:30:33;;;;;;;132.90;37.53;;;;;;;-15.37;79.11;101551.77;1575728;90;21268;-81
2021/01/18 04:33:09;;;;;;;132.03;39.50;;;;;;;-15.37;79.15;101547.17;1581370;89;21216;-80
2021/01/18 04:35:39;;;;;;;129.27;38.23;;;;;;;-15.37;79.08;101548.05;1571695;89;21640;-81
2021/01/18 04:38:07;;;;;;;130.50;36.40;;;;;;;-15.38;79.13;101540.09;1579515;89;21189;-80
2021/01/18 04:40:35;;;;;;;140.53;40.33;;;;;;;-15.37;79.17;101540.97;1578370;89;21230;-80
2021/01/18 04:43:02;;;;;;;130.87;38.20;;;;;;;-15.38;79.13;101541.33;1578905;89;21623;-80
2021/01/18 04:45:30;;;;;;;143.23;40.17;;;;;;;-15.40;79.04;101543.66;1579081;89;21218;-80
2021/01/18 04:47:58;;;;;;;144.10;40.03;;;;;;;-15.43;79.01;101548.30;1576055;89;21262;-80
2021/01/18 04:50:27;;;;;;;123.67;38.30;;;;;;;-15.45;78.99;101544.80;1580744;89;21270;-80
2021/01/18 04:53:10;;;;;;;128.30;38.27;;;;;;;-15.49;78.92;101539.38;1552902;90;21224;-80
2021/01/18 04:55:59;;;;;;;128.07;37.67;;;;;;;-15.51;78.98;101536.73;1578352;90;21227;-80
2021/01/18 04:58:31;;;;;;;133.67;41.47;;;;;;;-15.51;79.04;101535.50;1582093;89;21225;-80
2021/01/18 05:01:02;;;;;;;149.43;43.43;;;;;;;-15.48;79.12;101532.45;1579126;89;21241;-80
2021/01/18 05:03:36;;;;;;;119.77;36.63;;;;;;;-15.51;78.99;101530.54;1575165;89;21196;-80
2021/01/18 05:06:17;;;;;;;111.77;33.70;;;;;;;-15.54;78.96;101531.83;1549955;90;21696;-80
2021/01/18 05:09:05;;;;;;;121.83;36.17;;;;;;;-15.55;78.97;101534.67;1578164;89;21704;-79
2021/01/18 05:11:33;;;;;;;132.00;38.07;;;;;;;-15.58;78.81;101544.30;1580890;89;21227;-80
2021/01/18 05:14:02;;;;;;;139.43;38.47;;;;;;;-15.60;78.98;101541.19;1581041;89;22266;-79
2021/01/18 05:16:36;;;;;;;116.63;35.10;;;;;;;-15.58;79.04;101545.91;1573865;89;21247;-79
2021/01/18 05:19:11;;;;;;;146.17;39.73;;;;;;;-15.58;79.00;101545.91;1576022;89;21979;-80
2021/01/18 05:21:43;;;;;;;111.77;34.27;;;;;;;-15.58;78.97;101544.30;1586945;89;21221;-80
2021/01/18 05:24:10;;;;;;;139.00;39.97;;;;;;;-15.56;79.02;101542.83;1587111;89;21194;-80
2021/01/18 05:26:37;;;;;;;134.83;38.83;;;;;;;-15.59;78.89;101537.98;1588640;89;21254;-80
2021/01/18 05:29:04;;;;;;;127.80;37.53;;;;;;;-15.61;78.95;101535.36;1574823;89;21259;-80
2021/01/18 05:31:33;;;;;;;132.27;36.27;;;;;;;-15.61;78.91;101535.36;1577470;89;21221;-80
2021/01/18 05:34:15;;;;;;;141.87;39.60;;;;;;;-15.64;78.91;101533.80;1576551;89;21246;-80
2021/01/18 05:36:45;;;;;;;149.50;42.10;;;;;;;-15.67;78.82;101530.13;1583437;89;21244;-80
2021/01/18 05:39:18;;;;;;;124.77;37.87;;;;;;;-15.68;78.97;101530.86;1573092;89;21781;-79
2021/01/18 05:41:52;;;;;;;134.43;40.67;;;;;;;-15.65;79.09;101529.56;1569740;89;21248;-80
2021/01/18 05:44:19;;;;;;;148.80;40.93;;;;;;;-15.62;79.09;101526.16;1576693;89;21205;-80
2021/01/18 05:46:47;;;;;;;133.90;40.23;;;;;;;-15.60;79.11;101524.72;1581818;89;21266;-79
2021/01/18 05:49:21;;;;;;;135.17;37.87;;;;;;;-15.59;79.04;101517.77;1575711;89;21164;-79
2021/01/18 05:51:52;;;;;;;151.00;42.87;;;;;;;-15.59;79.06;101514.44;1579105;89;21837;-80
2021/01/18 05:54:26;;;;;;;132.70;39.07;;;;;;;-15.57;79.09;101512.97;1573616;89;21140;-78
2021/01/18 05:56:55;;;;;;;141.93;40.97;;;;;;;-15.55;79.11;101518.92;1575021;89;21247;-79
2021/01/18 05:59:24;;;;;;;138.97;41.47;;;;;;;-15.51;79.14;101520.98;1577199;89;21290;-78
2021/01/18 06:01:54;;;;;;;143.23;42.70;;;;;;;-15.49;79.18;101525.37;1575062;88;21219;-78
2021/01/18 06:04:24;;;;;;;151.47;46.47;;;;;;;-15.46;79.11;101523.56;1578901;89;21980;-78
2021/01/18 06:06:59;;;;;;;158.90;47.87;;;;;;;-15.45;79.17;101520.00;1577003;89;21166;-78
2021/01/18 06:09:47;;;;;;;159.32;46.33;;;;;;;-15.41;79.22;101513.39;1579736;89;21267;-78
2021/01/18 06:12:25;;;;;;;171.50;43.93;;;;;;;-15.37;79.23;101512.46;1576567;89;21281;-78
2021/01/18 06:15:14;;;;;;;163.77;45.67;;;;;;;-15.32;79.29;101515.04;1582057;89;22151;-79
2021/01/18 06:17:48;;;;;;;140.17;39.63;;;;;;;-15.30;79.26;101516.07;1581673;89;22395;-79
2021/01/18 06:20:23;;;;;;;132.70;39.30;;;;;;;-15.28;79.21;101519.22;1572450;89;21243;-79
2021/01/18 06:22:55;;;;;;;141.93;42.50;;;;;;;-15.29;79.09;101521.55;1577026;89;21561;-80
2021/01/18 06:25:26;;;;;;;132.90;42.53;;;;;;;-15.32;79.06;101517.52;1577634;89;21226;-79
2021/01/18 06:27:52;;;;;;;157.07;44.47;;;;;;;-15.32;79.08;101511.33;1567288;89;21256;-79
2021/01/18 06:30:29;;;;;;;162.67;45.10;;;;;;;-15.34;79.03;101507.81;1576547;89;21232;-78
2021/01/18 06:32:59;;;;;;;133.60;37.00;;;;;;;-15.35;79.03;101505.70;1582459;89;21708;-77
2021/01/18 06:35:31;;;;;;;130.67;37.80;;;;;;;-15.37;78.89;101504.66;1583629;88;21279;-77
2021/01/18 06:38:05;;;;;;;168.13;45.97;;;;;;;-15.44;78.84;101511.84;1572036;89;21156;-81
2021/01/18 06:40:40;;;;;;;159.07;44.93;;;;;;;-15.45;78.96;101512.56;1579898;89;21563;-74
2021/01/18 06:43:09;;;;;;;174.93;49.98;;;;;;;-15.42;79.03;101508.28;1579621;89;21358;-75
2021/01/18 06:45:39;;;;;;;189.63;49.70;;;;;;;-15.41;79.05;101513.75;1579291;89;21170;-77
2021/01/18 06:48:22;;;;;;;;;;;;;;;-15.37;79.03;101513.34;1799713;77;21912;-75
2021/01/18 06:50:49;;;;;;;174.00;49.17;;;;;;;-15.41;79.01;101515.88;1798206;78;20520;-75
2021/01/18 06:53:24;;;;;;;167.10;51.57;;;;;;;-15.40;79.10;101501.87;1797038;78;21905;-75
2021/01/18 06:56:11;;;;;;;187.03;49.47;;;;;;;-15.32;79.25;101511.33;1787666;78;21559;-75
2021/01/18 06:59:02;;;;;;;174.00;47.13;;;;;;;-15.27;79.32;101511.42;1806068;78;21015;-75
2021/01/18 07:01:38;;;;;;;166.07;49.80;;;;;;;-15.20;79.33;101515.03;1795081;78;21226;-75
2021/01/18 07:04:13;;;;;;;189.33;51.33;;;;;;;-15.15;79.29;101523.44;1795786;78;21185;-75
2021/01/18 07:06:46;;;;;;;177.65;51.60;;;;;;;-15.09;79.33;101525.66;1783631;78;21184;-75
2021/01/18 07:09:19;;;;;;;196.83;59.90;;;;;;;-15.02;79.37;101529.23;1766868;78;21115;-75
2021/01/18 07:11:46;;;;;;;215.50;63.40;;;;;;;-14.94;79.36;101520.06;1779302;78;20983;-75
2021/01/18 07:14:14;;;;;;;184.50;57.17;;;;;;;-14.89;79.42;101522.64;1779528;78;20983;-76
2021/01/18 07:16:42;;;;;;;196.27;57.47;;;;;;;-14.83;79.44;101517.92;1779172;78;21106;-76
2021/01/18 07:19:09;;;;;;;180.80;52.13;;;;;;;-14.76;79.44;101521.52;1784826;79;21219;-76
2021/01/18 07:21:49;;;;;;;178.67;52.17;;;;;;;-14.69;79.44;101527.96;1787428;78;21125;-75
2021/01/18 07:24:16;;;;;;;182.50;51.93;;;;;;;-14.64;79.40;101527.17;1776586;80;21125;-75
2021/01/18 07:26:54;;;;;;;193.90;59.33;;;;;;;-14.56;79.45;101528.80;1772210;80;21203;-78
2021/01/18 07:29:26;;;;;;;196.87;58.47;;;;;;;-14.50;79.47;101523.16;1775540;80;21091;-78
2021/01/18 07:31:56;;;;;;;207.03;61.10;;;;;;;-14.38;79.54;101520.59;1773454;78;21221;-78
2021/01/18 07:34:25;;;;;;;192.00;59.93;;;;;;;-14.28;79.63;101524.84;1780903;79;21129;-78
2021/01/18 07:36:52;;;;;;;197.97;63.83;;;;;;;-14.15;79.70;101524.92;1776463;80;21098;-78
2021/01/18 07:39:29;;;;;;;190.47;60.50;;;;;;;-14.01;79.79;101527.82;1773379;79;21098;-78
2021/01/18 07:41:55;;;;;;;170.97;55.60;;;;;;;-13.90;79.80;101523.14;1759906;80;20984;-78
2021/01/18 07:44:41;;;;;;;189.53;60.90;;;;;;;-13.76;79.91;101521.59;1765553;80;21144;-78
2021/01/18 07:47:17;;;;;;;184.70;57.90;;;;;;;-13.64;79.86;101524.36;1776462;80;21287;-78
2021/01/18 07:49:47;;;;;;;162.32;48.40;;;;;;;-13.51;79.92;101527.23;1774733;78;21784;-78
2021/01/18 07:52:29;;;;;;;180.67;60.00;;;;;;;-13.37;79.88;101527.64;1776806;80;20979;-79
2021/01/18 07:54:57;;;;;;;195.30;60.40;;;;;;;-13.29;79.85;101530.48;1798192;78;21106;-78
2021/01/18 07:57:38;;;;;;;177.40;58.07;;;;;;;-13.21;79.89;101530.45;1776121;78;21779;-79
2021/01/18 08:00:27;;;;;;;181.77;60.17;;;;;;;-13.13;79.89;101533.62;1751652;80;21209;-78
2021/01/18 08:03:01;;;;;;;186.50;58.13;;;;;;;-13.05;79.88;101529.86;1780996;78;21180;-78
2021/01/18 08:05:41;;;;;;;186.50;57.43;;;;;;;-12.97;79.95;101526.80;1765921;78;21169;-78
2021/01/18 08:08:16;;;;;;;194.93;65.63;;;;;;;-12.90;79.95;101529.11;1760554;80;21201;-78
2021/01/18 08:10:58;;;;;;;134.12;44.58;;;;;;;-12.79;80.02;101532.21;1771677;80;22105;-78
2021/01/18 08:13:53;;;;;;;192.10;58.80;;;;;;;-12.68;80.05;101537.29;1779972;78;21217;-79
2021/01/18 08:16:27;;;;;;;183.57;56.95;;;;;;;-12.59;80.07;101544.34;1768543;80;21056;-79
2021/01/18 08:19:23;;;;;;;189.67;59.30;;;;;;;-12.47;80.15;101532.97;1776434;80;21225;-78
2021/01/18 08:21:58;;;;;;;190.43;60.40;;;;;;;-12.35;80.19;101530.70;1752897;80;21202;-78
2021/01/18 08:24:34;;;;;;;193.20;62.03;;;;;;;-12.22;80.21;101526.94;1735868;80;22118;-78
2021/01/18 08:27:07;;;;;;;180.03;59.33;;;;;;;-12.09;80.23;101525.16;1769062;78;21249;-79
2021/01/18 08:29:55;;;;;;;202.63;63.17;;;;;;;-12.01;80.23;101525.47;1777490;78;21213;-79
2021/01/18 08:32:35;;;;;;;193.17;63.67;;;;;;;-11.91;80.27;101533.35;1787955;78;21185;-79
2021/01/18 08:35:21;;;;;;;207.63;62.70;;;;;;;-11.83;80.25;101533.66;1768400;78;21464;-79
2021/01/18 08:37:59;;;;;;;197.40;62.83;;;;;;;-11.79;80.11;101531.56;1768419;78;21228;-79
2021/01/18 08:40:48;;;;;;;179.70;58.47;;;;;;;-11.73;80.20;101534.92;1767324;78;21204;-78
2021/01/18 08:43:17;;;;;;;189.43;59.70;;;;;;;-11.66;80.24;101536.34;1786867;79;21106;-79
2021/01/18 08:45:53;;;;;;;194.27;59.70;;;;;;;-11.57;80.29;101528.03;1750140;80;21419;-78
2021/01/18 08:48:27;;;;;;;189.27;58.37;;;;;;;-11.52;80.23;101529.30;1779499;79;21097;-78
2021/01/18 08:50:55;;;;;;;186.03;59.27;;;;;;;-11.46;80.26;101529.83;1757452;80;21900;-78
2021/01/18 08:53:34;;;;;;;191.60;59.77;;;;;;;-11.39;80.27;101530.83;1782420;80;21173;-78
2021/01/18 08:56:09;;;;;;;172.87;58.33;;;;;;;-11.32;80.30;101527.61;1774253;80;20927;-79
2021/01/18 08:58:44;;;;;;;178.55;56.37;;;;;;;-11.28;80.26;101523.38;1772601;80;21106;-78
2021/01/18 09:01:17;;;;;;;181.77;57.30;;;;;;;-11.24;80.28;101522.89;1777446;80;21134;-79
2021/01/18 09:03:43;;;;;;;178.73;59.30;;;;;;;-11.18;80.30;101521.80;1754752;80;21653;-79
2021/01/18 09:06:10;;;;;;;180.87;57.20;;;;;;;-11.13;80.30;101518.44;1774759;80;21145;-78
2021/01/18 09:08:39;;;;;;;169.37;57.03;;;;;;;-11.07;80.33;101518.95;1786273;80;21101;-79
2021/01/18 09:11:10;;;;;;;175.57;59.07;;;;;;;-11.02;80.34;101517.72;1776891;78;21093;-78
2021/01/18 09:13:39;;;;;;;169.13;54.87;;;;;;;-10.97;80.34;101522.73;1770562;78;21126;-79
2021/01/18 09:16:10;;;;;;;196.17;63.80;;;;;;;-10.89;80.40;101519.59;1784542;80;21812;-78
2021/01/18 09:18:37;;;;;;;182.53;58.87;;;;;;;-10.84;80.37;101516.73;1771268;80;21031;-78
2021/01/18 09:21:07;;;;;;;174.27;55.13;;;;;;;-10.77;80.40;101511.50;1751087;80;21135;-78
2021/01/18 09:23:34;;;;;;;154.17;53.77;;;;;;;-10.70;80.45;101512.88;1784782;80;21690;-78
2021/01/18 09:26:05;;;;;;;146.13;52.40;;;;;;;-10.60;80.52;101518.27;1776826;80;21729;-79
2021/01/18 09:28:32;;;;;;;181.27;59.63;;;;;;;-10.54;80.50;101508.40;1781792;80;22314;-78
2021/01/18 09:45:18;;;;;;;194.87;75.75;;;;;;;-9.75;80.35;101490.08;1853128;75;22846;-79
2021/01/18 09:47:44;;;;;;;;;;;;;;;-9.76;80.20;101491.70;1835963;76;21174;-78
2021/01/18 09:50:17;;;;;;;196.70;72.30;;;;;;;-9.76;80.25;101497.09;1833909;76;21113;-79
2021/01/18 09:52:47;;;;;;;193.00;72.27;;;;;;;-9.76;80.29;101495.83;1844182;76;21046;-78
2021/01/18 09:55:39;;;;;;;191.43;65.53;;;;;;;-9.81;80.30;101496.72;1828746;76;21238;-79
2021/01/18 09:58:15;;;;;;;188.30;69.33;;;;;;;-9.85;80.33;101492.61;1834645;76;21160;-79
2021/01/18 10:00:43;;;;;;;208.43;71.03;;;;;;;-9.87;80.42;101495.36;1855936;76;21437;-79
2021/01/18 10:03:11;;;;;;;213.10;70.50;;;;;;;-9.91;80.40;101491.78;1843905;76;21965;-79
2021/01/18 10:05:44;;;;;;;185.10;65.53;;;;;;;-9.93;80.46;101494.53;1835336;76;21038;-79
2021/01/18 10:08:15;;;;;;;177.53;63.30;;;;;;;-9.91;80.57;101490.91;1823716;76;21220;-78
2021/01/18 10:10:48;;;;;;;184.60;62.37;;;;;;;-9.88;80.58;101497.41;1828668;76;21192;-78
2021/01/18 10:13:18;;;;;;;190.70;66.30;;;;;;;-9.81;80.76;101487.97;1802166;76;21162;-78
2021/01/18 10:15:48;;;;;;;178.77;61.93;;;;;;;-9.73;80.77;101483.56;1835732;76;22332;-79
2021/01/18 10:18:41;;;;;;;169.50;60.10;;;;;;;-9.63;80.84;101477.66;1824465;76;21166;-78
2021/01/18 10:21:07;;;;;;;186.82;66.85;;;;;;;-9.57;80.81;101475.62;1826944;76;21216;-78
2021/01/18 10:23:40;;;;;;;190.30;69.80;;;;;;;-9.49;80.80;101474.59;1824436;76;21671;-78
2021/01/18 10:26:24;;;;;;;177.67;64.23;;;;;;;-9.45;80.75;101471.20;1815892;76;21164;-79
2021/01/18 10:28:55;;;;;;;170.57;61.90;;;;;;;-9.38;80.83;101463.78;1802266;76;22479;-78
2021/01/18 10:31:28;;;;;;;183.77;66.63;;;;;;;-9.28;80.87;101460.31;1818324;76;21227;-78
2021/01/18 10:34:16;;;;;;;191.57;67.43;;;;;;;-9.23;80.75;101456.53;1824343;76;21180;-78
2021/01/18 10:36:45;;;;;;;184.10;65.27;;;;;;;-9.22;80.72;101452.02;1778444;78;21178;-77
2021/01/18 10:39:35;;;;;;;188.33;65.13;;;;;;;-9.15;80.83;101454.23;1785127;78;21185;-77
2021/01/18 10:42:09;;;;;;;196.18;65.75;;;;;;;-9.12;80.79;101451.58;1799740;78;21299;-79
2021/01/18 10:44:37;;;;;;;182.95;64.82;;;;;;;-9.03;80.88;101462.68;1701942;81;21133;-78
2021/01/18 10:47:05;;;;;;;174.00;62.93;;;;;;;-8.95;80.89;101460.75;1707180;77;207726;-79
2021/01/18 10:49:34;;;;;;;184.15;65.28;;;;;;;-8.87;80.97;101458.44;1633130;85;21179;-79
2021/01/18 10:52:09;;;;;;;184.07;68.33;;;;;;;-8.79;80.95;101452.33;1636880;85;21143;-79
2021/01/18 10:54:36;;;;;;;155.57;53.37;;;;;;;-8.69;80.98;101456.02;1650567;85;21653;-79
2021/01/18 10:57:21;;;;;;;193.95;74.35;;;;;;;-8.66;80.85;101453.74;1652029;85;22029;-79
2021/01/18 11:00:09;;;;;;;202.22;70.62;;;;;;;-8.61;80.91;101452.45;1633117;85;21154;-79
2021/01/18 11:02:41;;;;;;;198.10;70.67;;;;;;;-8.58;80.87;101448.91;1650408;85;21548;-79
2021/01/18 11:05:11;;;;;;;185.73;68.42;;;;;;;-8.56;80.82;101446.52;1649247;85;21692;-79
2021/01/18 11:07:39;;;;;;;197.05;72.27;;;;;;;-8.52;80.86;101442.22;1643247;85;21171;-80
2021/01/18 11:10:06;;;;;;;183.50;68.80;;;;;;;-8.49;80.85;101428.27;1643943;85;21222;-79
2021/01/18 11:12:41;;;;;;;188.20;68.40;;;;;;;-8.44;80.97;101431.12;1643542;85;21698;-79
2021/01/18 11:15:13;;;;;;;182.62;67.82;;;;;;;-8.38;81.00;101429.05;1640044;85;21663;-79
2021/01/18 11:17:40;;;;;;;173.00;64.90;;;;;;;-8.32;80.98;101431.97;1638142;85;21203;-79
2021/01/18 11:20:08;;;;;;;184.90;68.02;;;;;;;-8.25;81.00;101430.75;1638080;85;21404;-80
2021/01/18 11:22:36;;;;;;;174.65;65.50;;;;;;;-8.19;81.02;101423.28;1676285;83;21469;-79
2021/01/18 11:25:02;;;;;;;179.32;63.90;;;;;;;-8.14;81.06;101414.83;1679829;83;21241;-79
2021/01/18 11:27:29;;;;;;;181.75;69.60;;;;;;;-8.06;81.10;101418.75;1682305;83;21215;-79
2021/01/18 11:29:55;;;;;;;;;;;;;;;-7.99;81.08;101409.64;1686563;83;21678;-79
2021/01/18 11:32:21;;;;;;;166.57;61.20;;;;;;;-7.93;81.06;101409.20;1678910;83;21252;-79
2021/01/18 11:34:47;;;;;;;;;;;;;;;-7.88;81.11;101412.53;1684594;83;21214;-78
2021/01/18 11:37:13;;;;;;;194.63;68.43;;;;;;;-7.80;81.15;101409.30;1684298;83;29182;-78